sensor_id;sensor_type;location;lat;lon;timestamp;temperature;humidity
46319;DHT22;32042;50.916;2.926;2024-03-23T00:53:12;7.80;99.90
46319;DHT22;32042;50.916;2.926;2024-03-23T00:55:38;7.80;99.90
46319;DHT22;32042;50.916;2.926;2024-03-23T00:58:04;7.80;99.90
46319;DHT22;32042;50.916;2.926;2024-03-23T01:00:29;7.90;99.90
46319;DHT22;32042;50.916;2.926;2024-03-23T01:02:55;7.90;99.90
46319;DHT22;32042;50.916;2.926;2024-03-23T01:05:21;7.90;99.90
46319;DHT22;32042;50.916;2.926;2024-03-23T01:07:47;7.90;99.90
46319;DHT22;32042;50.916;2.926;2024-03-23T01:10:13;7.90;99.90
46319;DHT22;32042;50.916;2.926;2024-03-23T01:12:39;8.00;99.90
46319;DHT22;32042;50.916;2.926;2024-03-23T01:15:05;8.00;99.90
46319;DHT22;32042;50.916;2.926;2024-03-23T01:17:31;8.00;99.90
46319;DHT22;32042;50.916;2.926;2024-03-23T01:19:57;8.00;99.90
46319;DHT22;32042;50.916;2.926;2024-03-23T01:22:23;7.90;99.90
46319;DHT22;32042;50.916;2.926;2024-03-23T01:24:49;8.00;99.90
46319;DHT22;32042;50.916;2.926;2024-03-23T01:27:14;8.00;99.90
46319;DHT22;32042;50.916;2.926;2024-03-23T01:29:40;8.00;99.90
46319;DHT22;32042;50.916;2.926;2024-03-23T01:32:06;8.00;99.90
46319;DHT22;32042;50.916;2.926;2024-03-23T01:34:32;8.00;99.90
46319;DHT22;32042;50.916;2.926;2024-03-23T01:36:58;8.00;99.90
46319;DHT22;32042;50.916;2.926;2024-03-23T01:39:24;8.00;99.90
46319;DHT22;32042;50.916;2.926;2024-03-23T01:41:50;7.90;99.90
46319;DHT22;32042;50.916;2.926;2024-03-23T01:44:16;7.80;99.90
46319;DHT22;32042;50.916;2.926;2024-03-23T01:46:43;7.80;99.90
46319;DHT22;32042;50.916;2.926;2024-03-23T01:49:09;7.80;99.90
46319;DHT22;32042;50.916;2.926;2024-03-23T01:51:36;7.80;99.90
46319;DHT22;32042;50.916;2.926;2024-03-23T01:54:03;7.80;99.90
46319;DHT22;32042;50.916;2.926;2024-03-23T01:56:31;7.70;99.90
46319;DHT22;32042;50.916;2.926;2024-03-23T01:58:58;7.70;99.90
46319;DHT22;32042;50.916;2.926;2024-03-23T02:01:24;7.70;99.90
46319;DHT22;32042;50.916;2.926;2024-03-23T02:03:50;7.60;99.90
46319;DHT22;32042;50.916;2.926;2024-03-23T02:06:15;7.60;99.90
46319;DHT22;32042;50.916;2.926;2024-03-23T02:08:42;7.60;99.90
46319;DHT22;32042;50.916;2.926;2024-03-23T02:11:08;7.50;99.90
46319;DHT22;32042;50.916;2.926;2024-03-23T02:13:34;7.50;99.90
46319;DHT22;32042;50.916;2.926;2024-03-23T02:15:59;7.50;99.90
46319;DHT22;32042;50.916;2.926;2024-03-23T02:18:25;7.50;99.90
46319;DHT22;32042;50.916;2.926;2024-03-23T02:20:51;7.50;99.90
46319;DHT22;32042;50.916;2.926;2024-03-23T02:23:17;7.40;99.90
46319;DHT22;32042;50.916;2.926;2024-03-23T02:25:44;7.40;99.90
46319;DHT22;32042;50.916;2.926;2024-03-23T02:28:09;7.40;99.90
46319;DHT22;32042;50.916;2.926;2024-03-23T02:30:35;7.20;99.90
46319;DHT22;32042;50.916;2.926;2024-03-23T02:33:01;7.40;99.90
46319;DHT22;32042;50.916;2.926;2024-03-23T02:35:27;7.30;99.90
46319;DHT22;32042;50.916;2.926;2024-03-23T02:37:53;7.30;99.90
46319;DHT22;32042;50.916;2.926;2024-03-23T02:40:20;7.30;99.90
46319;DHT22;32042;50.916;2.926;2024-03-23T02:42:46;7.30;99.90
46319;DHT22;32042;50.916;2.926;2024-03-23T02:45:12;7.30;99.90
46319;DHT22;32042;50.916;2.926;2024-03-23T02:47:37;7.20;99.90
46319;DHT22;32042;50.916;2.926;2024-03-23T02:50:03;7.20;99.90
46319;DHT22;32042;50.916;2.926;2024-03-23T02:52:30;7.10;99.90
46319;DHT22;32042;50.916;2.926;2024-03-23T02:54:56;7.10;99.90
46319;DHT22;32042;50.916;2.926;2024-03-23T02:57:22;7.10;99.90
46319;DHT22;32042;50.916;2.926;2024-03-23T02:59:48;7.00;99.90
46319;DHT22;32042;50.916;2.926;2024-03-23T03:02:14;7.00;99.90
46319;DHT22;32042;50.916;2.926;2024-03-23T03:04:40;7.00;99.90
46319;DHT22;32042;50.916;2.926;2024-03-23T03:07:07;7.00;99.90
46319;DHT22;32042;50.916;2.926;2024-03-23T03:09:34;6.90;99.90
46319;DHT22;32042;50.916;2.926;2024-03-23T03:12:01;6.90;99.90
46319;DHT22;32042;50.916;2.926;2024-03-23T03:14:27;6.90;99.90
46319;DHT22;32042;50.916;2.926;2024-03-23T03:16:53;6.90;99.90
46319;DHT22;32042;50.916;2.926;2024-03-23T03:19:19;6.90;99.90
46319;DHT22;32042;50.916;2.926;2024-03-23T03:21:45;6.90;99.90
46319;DHT22;32042;50.916;2.926;2024-03-23T03:24:11;6.90;99.90
46319;DHT22;32042;50.916;2.926;2024-03-23T03:26:36;6.90;99.90
46319;DHT22;32042;50.916;2.926;2024-03-23T03:29:02;6.90;99.90
46319;DHT22;32042;50.916;2.926;2024-03-23T03:31:28;6.90;99.90
46319;DHT22;32042;50.916;2.926;2024-03-23T03:33:54;6.80;99.90
46319;DHT22;32042;50.916;2.926;2024-03-23T03:36:19;6.90;99.90
46319;DHT22;32042;50.916;2.926;2024-03-23T03:38:46;6.80;99.90
46319;DHT22;32042;50.916;2.926;2024-03-23T03:41:12;6.80;99.90
46319;DHT22;32042;50.916;2.926;2024-03-23T03:43:38;6.80;99.90
46319;DHT22;32042;50.916;2.926;2024-03-23T03:46:04;6.80;99.90
46319;DHT22;32042;50.916;2.926;2024-03-23T03:48:29;6.80;99.90
46319;DHT22;32042;50.916;2.926;2024-03-23T03:50:55;6.80;99.90
46319;DHT22;32042;50.916;2.926;2024-03-23T03:53:21;6.80;99.90
46319;DHT22;32042;50.916;2.926;2024-03-23T03:55:47;6.80;99.90
46319;DHT22;32042;50.916;2.926;2024-03-23T03:58:13;6.80;99.90
46319;DHT22;32042;50.916;2.926;2024-03-23T04:00:39;6.90;99.90
46319;DHT22;32042;50.916;2.926;2024-03-23T04:03:04;6.80;99.90
46319;DHT22;32042;50.916;2.926;2024-03-23T04:05:30;6.80;99.90
46319;DHT22;32042;50.916;2.926;2024-03-23T04:07:56;6.80;99.90
46319;DHT22;32042;50.916;2.926;2024-03-23T04:10:22;6.80;99.90
46319;DHT22;32042;50.916;2.926;2024-03-23T04:12:47;6.80;99.90
46319;DHT22;32042;50.916;2.926;2024-03-23T04:15:13;6.70;99.90
46319;DHT22;32042;50.916;2.926;2024-03-23T04:17:39;6.70;99.90
46319;DHT22;32042;50.916;2.926;2024-03-23T04:20:08;6.60;99.90
46319;DHT22;32042;50.916;2.926;2024-03-23T04:22:37;6.60;99.90
46319;DHT22;32042;50.916;2.926;2024-03-23T04:25:03;6.50;99.90
46319;DHT22;32042;50.916;2.926;2024-03-23T04:27:35;6.50;99.90
46319;DHT22;32042;50.916;2.926;2024-03-23T04:30:01;6.40;99.90
46319;DHT22;32042;50.916;2.926;2024-03-23T04:32:28;6.30;99.90
46319;DHT22;32042;50.916;2.926;2024-03-23T04:34:54;6.30;99.90
46319;DHT22;32042;50.916;2.926;2024-03-23T04:37:21;6.20;99.90
46319;DHT22;32042;50.916;2.926;2024-03-23T04:39:47;6.20;99.90
46319;DHT22;32042;50.916;2.926;2024-03-23T04:42:17;6.20;99.90
46319;DHT22;32042;50.916;2.926;2024-03-23T04:44:43;6.10;99.90
46319;DHT22;32042;50.916;2.926;2024-03-23T04:47:10;6.10;99.90
46319;DHT22;32042;50.916;2.926;2024-03-23T04:49:36;6.00;99.90
46319;DHT22;32042;50.916;2.926;2024-03-23T04:52:05;6.00;99.90
46319;DHT22;32042;50.916;2.926;2024-03-23T04:54:31;6.00;99.90
46319;DHT22;32042;50.916;2.926;2024-03-23T04:57:00;6.00;99.90
46319;DHT22;32042;50.916;2.926;2024-03-23T04:59:26;5.90;99.90
46319;DHT22;32042;50.916;2.926;2024-03-23T05:01:51;5.90;99.90
46319;DHT22;32042;50.916;2.926;2024-03-23T05:04:17;5.90;99.90
46319;DHT22;32042;50.916;2.926;2024-03-23T05:06:44;5.90;99.90
46319;DHT22;32042;50.916;2.926;2024-03-23T05:09:11;5.80;99.90
46319;DHT22;32042;50.916;2.926;2024-03-23T05:11:40;5.80;99.90
46319;DHT22;32042;50.916;2.926;2024-03-23T05:14:07;5.80;99.90
46319;DHT22;32042;50.916;2.926;2024-03-23T05:16:33;5.90;99.90
46319;DHT22;32042;50.916;2.926;2024-03-23T05:18:59;5.80;99.90
46319;DHT22;32042;50.916;2.926;2024-03-23T05:21:25;5.80;99.90
46319;DHT22;32042;50.916;2.926;2024-03-23T05:23:51;5.80;99.90
46319;DHT22;32042;50.916;2.926;2024-03-23T05:26:17;5.70;99.90
46319;DHT22;32042;50.916;2.926;2024-03-23T05:28:43;5.70;99.90
46319;DHT22;32042;50.916;2.926;2024-03-23T05:31:09;5.70;99.90
46319;DHT22;32042;50.916;2.926;2024-03-23T05:33:36;5.70;99.90
46319;DHT22;32042;50.916;2.926;2024-03-23T05:36:03;5.70;99.90
46319;DHT22;32042;50.916;2.926;2024-03-23T05:38:29;5.60;99.90
46319;DHT22;32042;50.916;2.926;2024-03-23T05:40:59;5.70;99.90
46319;DHT22;32042;50.916;2.926;2024-03-23T05:43:26;5.60;99.90
46319;DHT22;32042;50.916;2.926;2024-03-23T05:45:55;5.60;99.90
46319;DHT22;32042;50.916;2.926;2024-03-23T05:48:22;5.60;99.90
46319;DHT22;32042;50.916;2.926;2024-03-23T05:50:49;5.60;99.90
46319;DHT22;32042;50.916;2.926;2024-03-23T05:53:16;5.60;99.90
46319;DHT22;32042;50.916;2.926;2024-03-23T05:55:42;5.60;99.90
46319;DHT22;32042;50.916;2.926;2024-03-23T05:58:08;5.60;99.90
46319;DHT22;32042;50.916;2.926;2024-03-23T06:00:33;5.60;99.90
46319;DHT22;32042;50.916;2.926;2024-03-23T06:02:59;5.60;99.90
46319;DHT22;32042;50.916;2.926;2024-03-23T06:05:25;5.60;99.90
46319;DHT22;32042;50.916;2.926;2024-03-23T06:07:52;5.50;99.90
46319;DHT22;32042;50.916;2.926;2024-03-23T06:10:19;5.60;99.90
46319;DHT22;32042;50.916;2.926;2024-03-23T06:12:47;5.60;99.90
46319;DHT22;32042;50.916;2.926;2024-03-23T06:15:14;5.60;99.90
46319;DHT22;32042;50.916;2.926;2024-03-23T06:17:40;5.60;99.90
46319;DHT22;32042;50.916;2.926;2024-03-23T06:20:06;5.60;99.90
46319;DHT22;32042;50.916;2.926;2024-03-23T06:22:32;5.60;99.90
46319;DHT22;32042;50.916;2.926;2024-03-23T06:24:59;5.60;99.90
46319;DHT22;32042;50.916;2.926;2024-03-23T06:27:25;5.70;99.90
46319;DHT22;32042;50.916;2.926;2024-03-23T06:29:50;5.70;99.90
46319;DHT22;32042;50.916;2.926;2024-03-23T06:32:17;5.60;99.90
46319;DHT22;32042;50.916;2.926;2024-03-23T06:34:43;5.70;99.90
46319;DHT22;32042;50.916;2.926;2024-03-23T06:37:08;5.70;99.90
46319;DHT22;32042;50.916;2.926;2024-03-23T06:39:36;5.70;99.90
46319;DHT22;32042;50.916;2.926;2024-03-23T06:42:02;5.70;99.90
46319;DHT22;32042;50.916;2.926;2024-03-23T06:44:28;5.80;99.90
46319;DHT22;32042;50.916;2.926;2024-03-23T06:46:54;5.80;99.90
46319;DHT22;32042;50.916;2.926;2024-03-23T06:49:20;5.80;99.90
46319;DHT22;32042;50.916;2.926;2024-03-23T06:51:46;5.90;99.90
46319;DHT22;32042;50.916;2.926;2024-03-23T06:54:12;6.00;99.90
46319;DHT22;32042;50.916;2.926;2024-03-23T06:56:38;6.10;99.90
46319;DHT22;32042;50.916;2.926;2024-03-23T06:59:03;6.10;99.90
46319;DHT22;32042;50.916;2.926;2024-03-23T07:01:29;6.10;99.90
46319;DHT22;32042;50.916;2.926;2024-03-23T07:03:55;6.20;99.90
46319;DHT22;32042;50.916;2.926;2024-03-23T07:06:23;6.30;99.90
46319;DHT22;32042;50.916;2.926;2024-03-23T07:08:49;6.40;99.90
46319;DHT22;32042;50.916;2.926;2024-03-23T07:11:19;6.40;99.90
46319;DHT22;32042;50.916;2.926;2024-03-23T07:13:45;6.50;99.90
46319;DHT22;32042;50.916;2.926;2024-03-23T07:16:13;6.50;99.90
46319;DHT22;32042;50.916;2.926;2024-03-23T07:18:38;6.60;99.90
46319;DHT22;32042;50.916;2.926;2024-03-23T07:21:05;6.60;99.90
46319;DHT22;32042;50.916;2.926;2024-03-23T07:23:32;6.60;99.90
46319;DHT22;32042;50.916;2.926;2024-03-23T07:26:04;6.60;99.90
46319;DHT22;32042;50.916;2.926;2024-03-23T07:28:31;6.70;99.90
46319;DHT22;32042;50.916;2.926;2024-03-23T07:31:09;6.70;99.90
46319;DHT22;32042;50.916;2.926;2024-03-23T07:33:37;6.70;99.90
46319;DHT22;32042;50.916;2.926;2024-03-23T07:36:04;6.80;99.90
46319;DHT22;32042;50.916;2.926;2024-03-23T07:38:29;6.90;99.90
46319;DHT22;32042;50.916;2.926;2024-03-23T07:41:16;6.90;99.90
46319;DHT22;32042;50.916;2.926;2024-03-23T07:43:46;7.00;99.90
46319;DHT22;32042;50.916;2.926;2024-03-23T07:46:12;7.00;99.90
46319;DHT22;32042;50.916;2.926;2024-03-23T07:48:38;7.00;99.90
46319;DHT22;32042;50.916;2.926;2024-03-23T07:51:10;7.00;99.90
46319;DHT22;32042;50.916;2.926;2024-03-23T07:53:37;7.10;99.90
46319;DHT22;32042;50.916;2.926;2024-03-23T07:56:06;7.20;99.90
46319;DHT22;32042;50.916;2.926;2024-03-23T07:58:32;7.20;99.90
46319;DHT22;32042;50.916;2.926;2024-03-23T08:01:07;7.20;99.90
46319;DHT22;32042;50.916;2.926;2024-03-23T08:03:38;7.30;99.90
46319;DHT22;32042;50.916;2.926;2024-03-23T08:08:35;7.40;99.90
46319;DHT22;32042;50.916;2.926;2024-03-23T08:11:01;7.40;99.90
46319;DHT22;32042;50.916;2.926;2024-03-23T08:13:27;7.40;99.90
46319;DHT22;32042;50.916;2.926;2024-03-23T08:15:59;7.40;99.90
46319;DHT22;32042;50.916;2.926;2024-03-23T08:18:25;7.40;99.90
46319;DHT22;32042;50.916;2.926;2024-03-23T08:21:02;7.40;99.90
46319;DHT22;32042;50.916;2.926;2024-03-23T08:23:29;7.50;99.90
46319;DHT22;32042;50.916;2.926;2024-03-23T08:26:02;7.60;99.90
46319;DHT22;32042;50.916;2.926;2024-03-23T08:28:28;7.60;99.90
46319;DHT22;32042;50.916;2.926;2024-03-23T08:30:55;7.60;99.90
46319;DHT22;32042;50.916;2.926;2024-03-23T08:33:21;7.70;99.90
46319;DHT22;32042;50.916;2.926;2024-03-23T08:36:00;7.80;99.90
46319;DHT22;32042;50.916;2.926;2024-03-23T08:38:27;7.80;99.90
46319;DHT22;32042;50.916;2.926;2024-03-23T08:41:04;7.90;99.90
46319;DHT22;32042;50.916;2.926;2024-03-23T08:43:35;7.90;99.90
46319;DHT22;32042;50.916;2.926;2024-03-23T08:46:05;8.00;99.90
46319;DHT22;32042;50.916;2.926;2024-03-23T08:48:44;8.10;99.90
46319;DHT22;32042;50.916;2.926;2024-03-23T08:51:12;8.10;99.90
46319;DHT22;32042;50.916;2.926;2024-03-23T08:53:38;8.10;99.90
46319;DHT22;32042;50.916;2.926;2024-03-23T08:56:06;8.00;99.90
46319;DHT22;32042;50.916;2.926;2024-03-23T08:58:32;8.10;99.90
46319;DHT22;32042;50.916;2.926;2024-03-23T09:01:16;8.20;99.90
46319;DHT22;32042;50.916;2.926;2024-03-23T09:03:42;8.20;99.90
46319;DHT22;32042;50.916;2.926;2024-03-23T09:06:10;8.20;99.90
46319;DHT22;32042;50.916;2.926;2024-03-23T09:08:37;8.20;99.90
46319;DHT22;32042;50.916;2.926;2024-03-23T09:11:10;8.30;99.90
46319;DHT22;32042;50.916;2.926;2024-03-23T09:13:37;8.40;99.90
46319;DHT22;32042;50.916;2.926;2024-03-23T09:16:04;8.40;99.90
46319;DHT22;32042;50.916;2.926;2024-03-23T09:18:32;8.50;99.90
46319;DHT22;32042;50.916;2.926;2024-03-23T09:20:58;8.50;99.90
46319;DHT22;32042;50.916;2.926;2024-03-23T09:23:24;8.50;99.90
46319;DHT22;32042;50.916;2.926;2024-03-23T09:25:50;8.60;99.90
46319;DHT22;32042;50.916;2.926;2024-03-23T09:28:15;8.50;99.90
46319;DHT22;32042;50.916;2.926;2024-03-23T09:30:41;8.50;99.90
46319;DHT22;32042;50.916;2.926;2024-03-23T09:33:10;8.60;99.90
46319;DHT22;32042;50.916;2.926;2024-03-23T09:35:39;8.70;99.90
46319;DHT22;32042;50.916;2.926;2024-03-23T09:38:06;8.80;99.90
46319;DHT22;32042;50.916;2.926;2024-03-23T09:40:33;8.70;99.90
46319;DHT22;32042;50.916;2.926;2024-03-23T09:42:59;8.60;99.90
46319;DHT22;32042;50.916;2.926;2024-03-23T09:45:29;8.40;99.90
46319;DHT22;32042;50.916;2.926;2024-03-23T09:47:55;8.30;99.90
46319;DHT22;32042;50.916;2.926;2024-03-23T09:50:22;8.30;99.90
46319;DHT22;32042;50.916;2.926;2024-03-23T09:52:48;8.40;99.90
46319;DHT22;32042;50.916;2.926;2024-03-23T09:55:14;8.60;99.90
46319;DHT22;32042;50.916;2.926;2024-03-23T09:57:41;8.60;99.90
46319;DHT22;32042;50.916;2.926;2024-03-23T10:00:07;8.60;99.90
46319;DHT22;32042;50.916;2.926;2024-03-23T10:02:34;8.50;99.90
46319;DHT22;32042;50.916;2.926;2024-03-23T10:05:00;8.40;99.90
46319;DHT22;32042;50.916;2.926;2024-03-23T10:07:26;8.50;99.90
46319;DHT22;32042;50.916;2.926;2024-03-23T10:09:56;8.50;99.90
46319;DHT22;32042;50.916;2.926;2024-03-23T10:12:23;8.50;99.90
46319;DHT22;32042;50.916;2.926;2024-03-23T10:14:49;8.50;99.90
46319;DHT22;32042;50.916;2.926;2024-03-23T10:17:22;8.50;99.90
46319;DHT22;32042;50.916;2.926;2024-03-23T10:19:52;8.50;99.90
46319;DHT22;32042;50.916;2.926;2024-03-23T10:22:19;8.40;99.90
46319;DHT22;32042;50.916;2.926;2024-03-23T10:24:46;8.40;99.90
46319;DHT22;32042;50.916;2.926;2024-03-23T10:27:21;8.30;99.90
46319;DHT22;32042;50.916;2.926;2024-03-23T10:29:48;8.30;99.90
46319;DHT22;32042;50.916;2.926;2024-03-23T10:32:17;8.30;99.90
46319;DHT22;32042;50.916;2.926;2024-03-23T10:34:44;8.30;99.90
46319;DHT22;32042;50.916;2.926;2024-03-23T10:37:10;8.30;99.90
46319;DHT22;32042;50.916;2.926;2024-03-23T10:39:38;8.30;99.90
46319;DHT22;32042;50.916;2.926;2024-03-23T10:42:05;8.30;99.90
46319;DHT22;32042;50.916;2.926;2024-03-23T10:44:31;8.30;99.90
46319;DHT22;32042;50.916;2.926;2024-03-23T10:46:58;8.40;99.90
46319;DHT22;32042;50.916;2.926;2024-03-23T10:49:32;8.40;99.90
46319;DHT22;32042;50.916;2.926;2024-03-23T10:52:02;8.50;99.90
46319;DHT22;32042;50.916;2.926;2024-03-23T10:54:28;8.60;99.90
46319;DHT22;32042;50.916;2.926;2024-03-23T10:59:34;9.10;99.90
46319;DHT22;32042;50.916;2.926;2024-03-23T11:02:01;9.30;99.90
46319;DHT22;32042;50.916;2.926;2024-03-23T11:04:31;9.50;99.90
46319;DHT22;32042;50.916;2.926;2024-03-23T11:06:58;9.60;99.90
46319;DHT22;32042;50.916;2.926;2024-03-23T11:09:43;9.70;99.90
46319;DHT22;32042;50.916;2.926;2024-03-23T11:15:04;9.80;99.90
46319;DHT22;32042;50.916;2.926;2024-03-23T11:17:31;9.70;99.90
46319;DHT22;32042;50.916;2.926;2024-03-23T11:20:01;9.60;99.90
46319;DHT22;32042;50.916;2.926;2024-03-23T11:22:43;9.70;99.90
46319;DHT22;32042;50.916;2.926;2024-03-23T11:27:43;9.50;99.90
46319;DHT22;32042;50.916;2.926;2024-03-23T11:30:37;9.50;99.90
46319;DHT22;32042;50.916;2.926;2024-03-23T11:33:04;9.60;99.90
46319;DHT22;32042;50.916;2.926;2024-03-23T11:38:12;9.60;99.90
46319;DHT22;32042;50.916;2.926;2024-03-23T11:40:40;9.60;99.90
46319;DHT22;32042;50.916;2.926;2024-03-23T11:43:08;9.40;99.90
46319;DHT22;32042;50.916;2.926;2024-03-23T11:45:39;9.20;99.90
46319;DHT22;32042;50.916;2.926;2024-03-23T11:48:07;9.10;99.90
46319;DHT22;32042;50.916;2.926;2024-03-23T11:50:35;9.10;99.90
46319;DHT22;32042;50.916;2.926;2024-03-23T11:53:14;9.30;99.90
46319;DHT22;32042;50.916;2.926;2024-03-23T11:56:17;9.40;99.90
46319;DHT22;32042;50.916;2.926;2024-03-23T11:58:36;9.40;99.90
46319;DHT22;32042;50.916;2.926;2024-03-23T12:01:03;9.20;99.90
46319;DHT22;32042;50.916;2.926;2024-03-23T12:03:30;9.10;99.90
46319;DHT22;32042;50.916;2.926;2024-03-23T12:06:01;9.00;99.90
46319;DHT22;32042;50.916;2.926;2024-03-23T12:08:32;9.10;99.90
46319;DHT22;32042;50.916;2.926;2024-03-23T12:13:37;9.20;99.90
46319;DHT22;32042;50.916;2.926;2024-03-23T12:16:11;9.30;99.90
46319;DHT22;32042;50.916;2.926;2024-03-23T12:18:39;9.30;99.90
46319;DHT22;32042;50.916;2.926;2024-03-23T12:21:05;9.30;99.90
46319;DHT22;32042;50.916;2.926;2024-03-23T12:23:31;9.30;99.90
46319;DHT22;32042;50.916;2.926;2024-03-23T12:25:58;9.30;99.90
46319;DHT22;32042;50.916;2.926;2024-03-23T12:28:23;9.30;99.90
46319;DHT22;32042;50.916;2.926;2024-03-23T12:30:49;9.30;99.90
46319;DHT22;32042;50.916;2.926;2024-03-23T12:33:15;9.20;99.90
46319;DHT22;32042;50.916;2.926;2024-03-23T12:35:41;9.20;99.90
46319;DHT22;32042;50.916;2.926;2024-03-23T12:38:07;9.20;99.90
46319;DHT22;32042;50.916;2.926;2024-03-23T12:40:32;9.40;99.90
46319;DHT22;32042;50.916;2.926;2024-03-23T12:42:58;9.50;99.90
46319;DHT22;32042;50.916;2.926;2024-03-23T12:45:24;9.80;99.90
46319;DHT22;32042;50.916;2.926;2024-03-23T12:47:50;9.90;99.90
46319;DHT22;32042;50.916;2.926;2024-03-23T12:50:18;9.90;99.90
46319;DHT22;32042;50.916;2.926;2024-03-23T12:52:43;9.80;99.90
46319;DHT22;32042;50.916;2.926;2024-03-23T12:55:09;9.70;99.90
46319;DHT22;32042;50.916;2.926;2024-03-23T12:57:35;9.60;99.90
46319;DHT22;32042;50.916;2.926;2024-03-23T13:00:01;9.60;99.90
46319;DHT22;32042;50.916;2.926;2024-03-23T13:02:28;9.60;99.90
46319;DHT22;32042;50.916;2.926;2024-03-23T13:04:55;9.60;99.90
46319;DHT22;32042;50.916;2.926;2024-03-23T13:07:22;9.70;99.90
46319;DHT22;32042;50.916;2.926;2024-03-23T13:09:50;9.70;99.90
46319;DHT22;32042;50.916;2.926;2024-03-23T13:12:17;9.60;99.90
46319;DHT22;32042;50.916;2.926;2024-03-23T13:14:44;9.60;99.90
46319;DHT22;32042;50.916;2.926;2024-03-23T13:17:10;9.70;99.90
46319;DHT22;32042;50.916;2.926;2024-03-23T13:19:36;9.90;99.90
46319;DHT22;32042;50.916;2.926;2024-03-23T13:22:01;9.90;99.90
46319;DHT22;32042;50.916;2.926;2024-03-23T13:24:28;10.00;99.90
46319;DHT22;32042;50.916;2.926;2024-03-23T13:26:59;10.00;99.90
46319;DHT22;32042;50.916;2.926;2024-03-23T13:29:26;10.00;99.90
46319;DHT22;32042;50.916;2.926;2024-03-23T13:31:52;10.10;99.90
46319;DHT22;32042;50.916;2.926;2024-03-23T13:34:19;10.30;99.90
46319;DHT22;32042;50.916;2.926;2024-03-23T13:36:45;10.50;99.90
46319;DHT22;32042;50.916;2.926;2024-03-23T13:39:12;10.60;99.90
46319;DHT22;32042;50.916;2.926;2024-03-23T13:41:38;10.60;99.90
46319;DHT22;32042;50.916;2.926;2024-03-23T13:44:05;10.50;99.90
46319;DHT22;32042;50.916;2.926;2024-03-23T13:46:31;10.50;99.90
46319;DHT22;32042;50.916;2.926;2024-03-23T13:48:57;10.50;99.90
46319;DHT22;32042;50.916;2.926;2024-03-23T13:51:24;10.40;99.90
46319;DHT22;32042;50.916;2.926;2024-03-23T13:53:56;10.50;99.90
46319;DHT22;32042;50.916;2.926;2024-03-23T13:56:23;10.50;99.90
46319;DHT22;32042;50.916;2.926;2024-03-23T13:58:49;10.40;99.90
46319;DHT22;32042;50.916;2.926;2024-03-23T14:01:15;10.40;99.90
46319;DHT22;32042;50.916;2.926;2024-03-23T14:03:42;10.40;99.90
46319;DHT22;32042;50.916;2.926;2024-03-23T14:06:10;10.50;99.90
46319;DHT22;32042;50.916;2.926;2024-03-23T14:08:37;10.50;99.90
46319;DHT22;32042;50.916;2.926;2024-03-23T14:11:07;10.60;99.90
46319;DHT22;32042;50.916;2.926;2024-03-23T14:13:36;10.70;99.90
46319;DHT22;32042;50.916;2.926;2024-03-23T14:16:03;10.80;99.90
46319;DHT22;32042;50.916;2.926;2024-03-23T14:18:29;10.80;99.90
46319;DHT22;32042;50.916;2.926;2024-03-23T14:21:00;10.90;99.90
46319;DHT22;32042;50.916;2.926;2024-03-23T14:23:27;11.10;99.90
46319;DHT22;32042;50.916;2.926;2024-03-23T14:25:55;11.10;99.90
46319;DHT22;32042;50.916;2.926;2024-03-23T14:28:24;11.20;99.90
46319;DHT22;32042;50.916;2.926;2024-03-23T14:30:51;11.20;99.90
46319;DHT22;32042;50.916;2.926;2024-03-23T14:33:18;11.20;99.90
46319;DHT22;32042;50.916;2.926;2024-03-23T14:35:56;11.10;99.90
46319;DHT22;32042;50.916;2.926;2024-03-23T14:38:24;10.90;99.90
46319;DHT22;32042;50.916;2.926;2024-03-23T14:40:50;10.80;99.90
46319;DHT22;32042;50.916;2.926;2024-03-23T14:43:19;10.80;99.90
46319;DHT22;32042;50.916;2.926;2024-03-23T14:46:13;10.90;99.90
46319;DHT22;32042;50.916;2.926;2024-03-23T14:48:40;11.00;99.90
46319;DHT22;32042;50.916;2.926;2024-03-23T14:51:07;11.20;99.90
46319;DHT22;32042;50.916;2.926;2024-03-23T14:53:40;11.30;99.90
46319;DHT22;32042;50.916;2.926;2024-03-23T14:56:07;11.40;99.90
46319;DHT22;32042;50.916;2.926;2024-03-23T14:58:33;11.40;99.90
46319;DHT22;32042;50.916;2.926;2024-03-23T15:01:07;11.50;99.90
46319;DHT22;32042;50.916;2.926;2024-03-23T15:03:40;11.60;99.90
46319;DHT22;32042;50.916;2.926;2024-03-23T15:06:07;11.30;99.90
46319;DHT22;32042;50.916;2.926;2024-03-23T15:08:34;11.10;99.90
46319;DHT22;32042;50.916;2.926;2024-03-23T15:11:02;10.90;99.90
46319;DHT22;32042;50.916;2.926;2024-03-23T15:13:34;10.80;99.90
46319;DHT22;32042;50.916;2.926;2024-03-23T15:16:00;10.90;99.90
46319;DHT22;32042;50.916;2.926;2024-03-23T15:18:25;10.90;99.90
46319;DHT22;32042;50.916;2.926;2024-03-23T15:20:52;10.80;99.90
46319;DHT22;32042;50.916;2.926;2024-03-23T15:23:18;10.70;99.90
46319;DHT22;32042;50.916;2.926;2024-03-23T15:25:44;10.60;99.90
46319;DHT22;32042;50.916;2.926;2024-03-23T15:28:10;10.50;99.90
46319;DHT22;32042;50.916;2.926;2024-03-23T15:30:35;10.50;99.90
46319;DHT22;32042;50.916;2.926;2024-03-23T15:33:02;10.60;99.90
46319;DHT22;32042;50.916;2.926;2024-03-23T15:35:28;10.80;99.90
46319;DHT22;32042;50.916;2.926;2024-03-23T15:37:53;11.00;99.90
46319;DHT22;32042;50.916;2.926;2024-03-23T15:40:19;10.90;99.90
46319;DHT22;32042;50.916;2.926;2024-03-23T15:42:45;10.80;99.90
46319;DHT22;32042;50.916;2.926;2024-03-23T15:45:11;10.80;99.90
46319;DHT22;32042;50.916;2.926;2024-03-23T15:47:37;10.70;99.90
46319;DHT22;32042;50.916;2.926;2024-03-23T15:50:02;10.60;99.90
46319;DHT22;32042;50.916;2.926;2024-03-23T15:52:34;10.60;99.90
46319;DHT22;32042;50.916;2.926;2024-03-23T15:55:01;10.50;99.90
46319;DHT22;32042;50.916;2.926;2024-03-23T15:57:27;10.40;99.90
46319;DHT22;32042;50.916;2.926;2024-03-23T15:59:53;10.40;99.90
46319;DHT22;32042;50.916;2.926;2024-03-23T16:02:19;10.40;99.90
46319;DHT22;32042;50.916;2.926;2024-03-23T16:04:45;10.30;99.90
46319;DHT22;32042;50.916;2.926;2024-03-23T16:07:11;10.20;99.90
46319;DHT22;32042;50.916;2.926;2024-03-23T16:09:38;10.20;99.90
46319;DHT22;32042;50.916;2.926;2024-03-23T16:12:04;10.00;99.90
46319;DHT22;32042;50.916;2.926;2024-03-23T16:14:30;9.90;99.90
46319;DHT22;32042;50.916;2.926;2024-03-23T16:16:56;9.80;99.90
46319;DHT22;32042;50.916;2.926;2024-03-23T16:19:21;9.70;99.90
46319;DHT22;32042;50.916;2.926;2024-03-23T16:21:48;9.60;99.90
46319;DHT22;32042;50.916;2.926;2024-03-23T16:24:13;9.50;99.90
46319;DHT22;32042;50.916;2.926;2024-03-23T16:26:39;9.30;99.90
46319;DHT22;32042;50.916;2.926;2024-03-23T16:29:05;9.10;99.90
46319;DHT22;32042;50.916;2.926;2024-03-23T16:31:31;8.90;99.90
46319;DHT22;32042;50.916;2.926;2024-03-23T16:33:57;8.90;99.90
46319;DHT22;32042;50.916;2.926;2024-03-23T16:36:22;8.90;99.90
46319;DHT22;32042;50.916;2.926;2024-03-23T16:38:48;9.00;99.90
46319;DHT22;32042;50.916;2.926;2024-03-23T16:41:14;9.10;99.90
46319;DHT22;32042;50.916;2.926;2024-03-23T16:43:42;9.20;99.90
46319;DHT22;32042;50.916;2.926;2024-03-23T16:46:10;9.20;99.90
46319;DHT22;32042;50.916;2.926;2024-03-23T16:48:40;9.30;99.90
46319;DHT22;32042;50.916;2.926;2024-03-23T16:51:06;9.30;99.90